sensor_id;sensor_type;location;lat;lon;timestamp;pressure;altitude;pressure_sealevel;temperature;humidity
40592;BME280;26301;42.832;23.918;2023-05-08T00:02:16;93309.75;;;9.13;100.00
40592;BME280;26301;42.832;23.918;2023-05-08T00:04:42;93332.84;;;9.20;100.00
40592;BME280;26301;42.832;23.918;2023-05-08T00:07:07;93313.00;;;9.08;100.00
40592;BME280;26301;42.832;23.918;2023-05-08T00:09:33;93340.38;;;9.21;100.00
40592;BME280;26301;42.832;23.918;2023-05-08T00:11:58;93320.16;;;9.06;100.00
40592;BME280;26301;42.832;23.918;2023-05-08T00:14:24;93335.53;;;9.13;100.00
40592;BME280;26301;42.832;23.918;2023-05-08T00:16:49;93333.41;;;9.10;100.00
40592;BME280;26301;42.832;23.918;2023-05-08T00:19:15;93303.56;;;8.90;100.00
40592;BME280;26301;42.832;23.918;2023-05-08T00:21:41;93316.44;;;9.02;100.00
40592;BME280;26301;42.832;23.918;2023-05-08T00:24:09;93305.91;;;8.92;100.00
40592;BME280;26301;42.832;23.918;2023-05-08T00:26:34;93333.84;;;9.07;100.00
40592;BME280;26301;42.832;23.918;2023-05-08T00:29:00;93340.31;;;8.98;100.00
40592;BME280;26301;42.832;23.918;2023-05-08T00:31:28;93327.16;;;8.76;100.00
40592;BME280;26301;42.832;23.918;2023-05-08T00:33:54;93327.34;;;8.74;100.00
40592;BME280;26301;42.832;23.918;2023-05-08T00:36:20;93316.00;;;8.63;100.00
40592;BME280;26301;42.832;23.918;2023-05-08T00:38:48;93334.88;;;8.76;100.00
40592;BME280;26301;42.832;23.918;2023-05-08T00:41:14;93333.50;;;8.73;100.00
40592;BME280;26301;42.832;23.918;2023-05-08T00:43:40;93276.44;;;8.28;100.00
40592;BME280;26301;42.832;23.918;2023-05-08T00:46:09;93346.03;;;8.69;100.00
40592;BME280;26301;42.832;23.918;2023-05-08T00:48:36;93319.53;;;8.51;100.00
40592;BME280;26301;42.832;23.918;2023-05-08T00:51:05;93319.31;;;8.52;100.00
40592;BME280;26301;42.832;23.918;2023-05-08T00:53:35;93349.25;;;8.65;100.00
40592;BME280;26301;42.832;23.918;2023-05-08T00:56:02;93339.97;;;8.64;100.00
40592;BME280;26301;42.832;23.918;2023-05-08T00:58:29;93337.25;;;8.59;100.00
40592;BME280;26301;42.832;23.918;2023-05-08T01:00:59;93339.25;;;8.57;100.00
40592;BME280;26301;42.832;23.918;2023-05-08T01:03:25;93317.47;;;8.41;100.00
40592;BME280;26301;42.832;23.918;2023-05-08T01:05:51;93338.47;;;8.56;100.00
40592;BME280;26301;42.832;23.918;2023-05-08T01:08:16;93346.09;;;8.63;100.00
40592;BME280;26301;42.832;23.918;2023-05-08T01:16:13;93337.03;;;8.60;100.00
40592;BME280;26301;42.832;23.918;2023-05-08T01:18:58;93324.75;;;8.44;100.00
40592;BME280;26301;42.832;23.918;2023-05-08T01:27:18;93327.25;;;8.32;100.00
40592;BME280;26301;42.832;23.918;2023-05-08T01:32:35;93345.00;;;8.40;100.00
40592;BME280;26301;42.832;23.918;2023-05-08T01:37:44;93337.34;;;8.34;100.00
40592;BME280;26301;42.832;23.918;2023-05-08T01:40:39;93344.84;;;8.35;100.00
40592;BME280;26301;42.832;23.918;2023-05-08T01:43:10;93339.28;;;8.38;100.00
40592;BME280;26301;42.832;23.918;2023-05-08T01:45:43;93327.25;;;8.32;100.00
40592;BME280;26301;42.832;23.918;2023-05-08T01:48:23;93329.69;;;8.27;100.00
40592;BME280;26301;42.832;23.918;2023-05-08T01:50:57;93341.03;;;8.38;100.00
40592;BME280;26301;42.832;23.918;2023-05-08T01:53:29;93330.41;;;8.34;100.00
40592;BME280;26301;42.832;23.918;2023-05-08T01:55:59;93326.31;;;8.27;100.00
40592;BME280;26301;42.832;23.918;2023-05-08T01:58:27;93335.56;;;8.34;100.00
40592;BME280;26301;42.832;23.918;2023-05-08T02:00:55;93302.47;;;8.19;100.00
40592;BME280;26301;42.832;23.918;2023-05-08T02:03:22;93303.59;;;8.23;100.00
40592;BME280;26301;42.832;23.918;2023-05-08T02:05:50;93337.50;;;8.39;100.00
40592;BME280;26301;42.832;23.918;2023-05-08T02:08:17;93329.63;;;8.34;100.00
40592;BME280;26301;42.832;23.918;2023-05-08T02:10:47;93327.19;;;8.39;100.00
40592;BME280;26301;42.832;23.918;2023-05-08T02:13:14;93325.09;;;8.29;100.00
40592;BME280;26301;42.832;23.918;2023-05-08T02:15:46;93335.28;;;8.42;100.00
40592;BME280;26301;42.832;23.918;2023-05-08T02:18:14;93326.75;;;8.42;100.00
40592;BME280;26301;42.832;23.918;2023-05-08T02:20:41;93321.94;;;8.27;100.00
40592;BME280;26301;42.832;23.918;2023-05-08T02:23:07;93317.19;;;8.31;100.00
40592;BME280;26301;42.832;23.918;2023-05-08T02:25:34;93333.31;;;8.38;100.00
40592;BME280;26301;42.832;23.918;2023-05-08T02:28:01;93328.38;;;8.36;100.00
40592;BME280;26301;42.832;23.918;2023-05-08T02:30:28;93337.19;;;8.29;100.00
40592;BME280;26301;42.832;23.918;2023-05-08T02:32:54;93312.25;;;8.11;100.00
40592;BME280;26301;42.832;23.918;2023-05-08T02:35:22;93312.00;;;8.00;100.00
40592;BME280;26301;42.832;23.918;2023-05-08T02:37:51;93333.97;;;8.15;100.00
40592;BME280;26301;42.832;23.918;2023-05-08T02:40:19;93332.69;;;8.06;100.00
40592;BME280;26301;42.832;23.918;2023-05-08T02:42:46;93339.19;;;8.08;100.00
40592;BME280;26301;42.832;23.918;2023-05-08T02:45:13;93330.41;;;7.97;100.00
40592;BME280;26301;42.832;23.918;2023-05-08T02:48:27;93324.78;;;7.89;100.00
40592;BME280;26301;42.832;23.918;2023-05-08T02:50:57;93342.03;;;8.00;100.00
40592;BME280;26301;42.832;23.918;2023-05-08T02:53:31;93331.81;;;7.93;100.00
40592;BME280;26301;42.832;23.918;2023-05-08T02:56:08;93321.41;;;7.88;100.00
40592;BME280;26301;42.832;23.918;2023-05-08T03:01:34;93312.75;;;7.83;100.00
40592;BME280;26301;42.832;23.918;2023-05-08T03:04:07;93329.59;;;7.97;100.00
40592;BME280;26301;42.832;23.918;2023-05-08T03:06:40;93330.19;;;7.99;100.00
40592;BME280;26301;42.832;23.918;2023-05-08T03:09:13;93327.84;;;7.97;100.00
40592;BME280;26301;42.832;23.918;2023-05-08T03:11:42;93329.41;;;7.98;100.00
40592;BME280;26301;42.832;23.918;2023-05-08T03:14:10;93328.47;;;7.93;100.00
40592;BME280;26301;42.832;23.918;2023-05-08T03:16:38;93319.81;;;7.87;100.00
40592;BME280;26301;42.832;23.918;2023-05-08T03:19:21;93346.41;;;7.99;100.00
40592;BME280;26301;42.832;23.918;2023-05-08T03:21:50;93317.47;;;7.86;100.00
40592;BME280;26301;42.832;23.918;2023-05-08T03:24:18;93329.59;;;7.97;100.00
40592;BME280;26301;42.832;23.918;2023-05-08T03:26:47;93330.84;;;7.94;100.00
40592;BME280;26301;42.832;23.918;2023-05-08T03:29:13;93340.63;;;8.04;100.00
40592;BME280;26301;42.832;23.918;2023-05-08T03:31:41;93331.31;;;8.03;100.00
40592;BME280;26301;42.832;23.918;2023-05-08T03:34:11;93346.91;;;8.08;100.00
40592;BME280;26301;42.832;23.918;2023-05-08T03:36:36;93343.72;;;8.13;100.00
40592;BME280;26301;42.832;23.918;2023-05-08T03:39:02;93306.69;;;7.95;100.00
40592;BME280;26301;42.832;23.918;2023-05-08T03:41:29;93323.41;;;8.05;100.00
40592;BME280;26301;42.832;23.918;2023-05-08T03:43:56;93321.00;;;8.10;100.00
40592;BME280;26301;42.832;23.918;2023-05-08T03:46:22;93341.22;;;8.24;100.00
40592;BME280;26301;42.832;23.918;2023-05-08T03:48:49;93343.56;;;8.26;100.00
40592;BME280;26301;42.832;23.918;2023-05-08T03:51:16;93320.69;;;8.18;100.00
40592;BME280;26301;42.832;23.918;2023-05-08T03:53:43;93343.63;;;8.38;100.00
40592;BME280;26301;42.832;23.918;2023-05-08T03:56:08;93319.19;;;8.29;100.00
40592;BME280;26301;42.832;23.918;2023-05-08T03:58:47;93340.63;;;8.59;100.00
40592;BME280;26301;42.832;23.918;2023-05-08T04:03:59;93337.06;;;8.72;100.00
40592;BME280;26301;42.832;23.918;2023-05-08T04:09:15;93333.03;;;8.95;100.00
40592;BME280;26301;42.832;23.918;2023-05-08T04:12:08;93338.56;;;9.10;100.00
40592;BME280;26301;42.832;23.918;2023-05-08T04:14:46;93322.97;;;9.16;100.00
40592;BME280;26301;42.832;23.918;2023-05-08T04:17:14;93333.53;;;9.38;100.00
40592;BME280;26301;42.832;23.918;2023-05-08T04:19:45;93338.25;;;9.53;100.00
40592;BME280;26301;42.832;23.918;2023-05-08T04:22:11;93318.34;;;9.60;100.00
40592;BME280;26301;42.832;23.918;2023-05-08T04:24:42;93325.59;;;9.99;100.00
40592;BME280;26301;42.832;23.918;2023-05-08T04:27:09;93321.63;;;10.32;100.00
40592;BME280;26301;42.832;23.918;2023-05-08T04:29:35;93311.34;;;10.60;100.00
40592;BME280;26301;42.832;23.918;2023-05-08T04:32:04;93334.44;;;10.95;100.00
40592;BME280;26301;42.832;23.918;2023-05-08T04:34:30;93313.72;;;11.07;100.00
40592;BME280;26301;42.832;23.918;2023-05-08T04:36:56;93326.34;;;11.37;100.00
40592;BME280;26301;42.832;23.918;2023-05-08T04:39:22;93320.47;;;11.59;100.00
40592;BME280;26301;42.832;23.918;2023-05-08T04:41:47;93320.44;;;11.76;100.00
40592;BME280;26301;42.832;23.918;2023-05-08T04:44:15;93334.78;;;12.00;100.00
40592;BME280;26301;42.832;23.918;2023-05-08T04:46:41;93347.63;;;12.12;100.00
40592;BME280;26301;42.832;23.918;2023-05-08T04:49:07;93345.47;;;12.26;100.00
40592;BME280;26301;42.832;23.918;2023-05-08T04:51:33;93336.84;;;12.42;100.00
40592;BME280;26301;42.832;23.918;2023-05-08T04:53:59;93340.66;;;12.56;100.00
40592;BME280;26301;42.832;23.918;2023-05-08T04:56:24;93345.97;;;12.67;100.00
40592;BME280;26301;42.832;23.918;2023-05-08T04:58:51;93335.75;;;12.82;100.00
40592;BME280;26301;42.832;23.918;2023-05-08T05:01:16;93331.56;;;13.03;99.84
40592;BME280;26301;42.832;23.918;2023-05-08T05:03:42;93315.81;;;13.10;99.31
40592;BME280;26301;42.832;23.918;2023-05-08T05:06:09;93312.72;;;13.40;99.47
40592;BME280;26301;42.832;23.918;2023-05-08T05:08:35;93313.16;;;13.64;99.15
40592;BME280;26301;42.832;23.918;2023-05-08T05:11:00;93307.09;;;13.95;92.71
40592;BME280;26301;42.832;23.918;2023-05-08T05:13:26;93319.19;;;14.22;86.20
40592;BME280;26301;42.832;23.918;2023-05-08T05:15:52;93319.31;;;14.48;82.21
40592;BME280;26301;42.832;23.918;2023-05-08T05:18:19;93317.31;;;14.60;80.25
40592;BME280;26301;42.832;23.918;2023-05-08T05:20:45;93311.13;;;14.76;80.59
40592;BME280;26301;42.832;23.918;2023-05-08T05:23:11;93320.00;;;15.01;79.66
40592;BME280;26301;42.832;23.918;2023-05-08T05:25:36;93311.47;;;15.21;79.12
40592;BME280;26301;42.832;23.918;2023-05-08T05:28:02;93312.00;;;15.38;77.31
40592;BME280;26301;42.832;23.918;2023-05-08T05:30:28;93304.94;;;15.64;75.29
40592;BME280;26301;42.832;23.918;2023-05-08T05:32:53;93305.47;;;15.82;68.55
40592;BME280;26301;42.832;23.918;2023-05-08T05:35:19;93320.28;;;16.12;69.76
40592;BME280;26301;42.832;23.918;2023-05-08T05:37:45;93302.50;;;16.29;73.50
40592;BME280;26301;42.832;23.918;2023-05-08T05:40:11;93298.00;;;16.45;70.53
40592;BME280;26301;42.832;23.918;2023-05-08T05:42:37;93291.66;;;16.72;70.48
40592;BME280;26301;42.832;23.918;2023-05-08T05:45:04;93299.63;;;16.96;70.57
40592;BME280;26301;42.832;23.918;2023-05-08T05:47:29;93291.44;;;17.12;71.31
40592;BME280;26301;42.832;23.918;2023-05-08T05:49:56;93270.25;;;17.19;68.14
40592;BME280;26301;42.832;23.918;2023-05-08T05:52:22;93298.22;;;17.48;66.67
40592;BME280;26301;42.832;23.918;2023-05-08T05:54:48;93304.31;;;17.72;65.83
40592;BME280;26301;42.832;23.918;2023-05-08T05:57:13;93305.78;;;17.83;64.33
40592;BME280;26301;42.832;23.918;2023-05-08T05:59:39;93303.09;;;17.94;67.07
40592;BME280;26301;42.832;23.918;2023-05-08T06:02:06;93308.50;;;18.02;63.25
40592;BME280;26301;42.832;23.918;2023-05-08T06:04:32;93308.03;;;18.19;62.65
40592;BME280;26301;42.832;23.918;2023-05-08T06:06:58;93306.22;;;18.20;62.37
40592;BME280;26301;42.832;23.918;2023-05-08T06:09:24;93285.00;;;18.26;62.80
40592;BME280;26301;42.832;23.918;2023-05-08T06:11:50;93286.31;;;18.48;62.39
40592;BME280;26301;42.832;23.918;2023-05-08T06:14:15;93300.88;;;18.78;58.98
40592;BME280;26301;42.832;23.918;2023-05-08T06:16:42;93296.34;;;19.03;57.18
40592;BME280;26301;42.832;23.918;2023-05-08T06:19:09;93291.19;;;19.16;56.83
40592;BME280;26301;42.832;23.918;2023-05-08T06:21:35;93299.09;;;19.30;59.56
40592;BME280;26301;42.832;23.918;2023-05-08T06:24:01;93275.97;;;19.37;55.67
40592;BME280;26301;42.832;23.918;2023-05-08T06:26:27;93291.06;;;19.59;54.59
40592;BME280;26301;42.832;23.918;2023-05-08T06:28:52;93272.56;;;19.70;54.56
40592;BME280;26301;42.832;23.918;2023-05-08T06:31:18;93294.16;;;19.94;53.57
40592;BME280;26301;42.832;23.918;2023-05-08T06:33:43;93290.78;;;20.07;54.16
40592;BME280;26301;42.832;23.918;2023-05-08T06:36:10;93271.56;;;20.12;54.27
40592;BME280;26301;42.832;23.918;2023-05-08T06:38:36;93284.41;;;20.41;52.77
40592;BME280;26301;42.832;23.918;2023-05-08T06:41:02;93290.03;;;20.62;51.52
40592;BME280;26301;42.832;23.918;2023-05-08T06:43:27;93271.19;;;20.60;49.92
40592;BME280;26301;42.832;23.918;2023-05-08T06:45:53;93265.34;;;20.77;49.99
40592;BME280;26301;42.832;23.918;2023-05-08T06:48:21;93286.00;;;20.92;49.50
40592;BME280;26301;42.832;23.918;2023-05-08T06:50:47;93290.59;;;20.87;48.69
40592;BME280;26301;42.832;23.918;2023-05-08T06:53:12;93275.94;;;20.72;46.52
40592;BME280;26301;42.832;23.918;2023-05-08T06:55:41;93270.09;;;20.75;44.61
40592;BME280;26301;42.832;23.918;2023-05-08T06:58:08;93280.53;;;21.02;43.78
40592;BME280;26301;42.832;23.918;2023-05-08T07:00:33;93265.50;;;21.17;44.58
40592;BME280;26301;42.832;23.918;2023-05-08T07:02:59;93280.16;;;21.32;44.49
40592;BME280;26301;42.832;23.918;2023-05-08T07:05:30;93290.75;;;21.27;43.12
40592;BME280;26301;42.832;23.918;2023-05-08T07:07:55;93300.94;;;21.06;43.15
40592;BME280;26301;42.832;23.918;2023-05-08T07:10:21;93287.44;;;21.12;45.78
40592;BME280;26301;42.832;23.918;2023-05-08T07:12:50;93286.31;;;21.27;45.23
40592;BME280;26301;42.832;23.918;2023-05-08T07:15:16;93291.53;;;21.41;43.75
40592;BME280;26301;42.832;23.918;2023-05-08T07:17:42;93293.22;;;21.37;44.42
40592;BME280;26301;42.832;23.918;2023-05-08T07:20:08;93269.41;;;21.19;43.91
40592;BME280;26301;42.832;23.918;2023-05-08T07:22:33;93290.22;;;21.16;44.05
40592;BME280;26301;42.832;23.918;2023-05-08T07:24:59;93290.41;;;21.19;43.27
40592;BME280;26301;42.832;23.918;2023-05-08T07:27:25;93274.41;;;21.07;43.24
40592;BME280;26301;42.832;23.918;2023-05-08T07:29:51;93296.34;;;21.48;43.80
40592;BME280;26301;42.832;23.918;2023-05-08T07:32:17;93282.50;;;21.56;43.09
40592;BME280;26301;42.832;23.918;2023-05-08T07:34:42;93301.69;;;21.79;42.52
40592;BME280;26301;42.832;23.918;2023-05-08T07:37:08;93268.47;;;21.60;41.64
40592;BME280;26301;42.832;23.918;2023-05-08T07:39:34;93289.53;;;21.69;43.66
40592;BME280;26301;42.832;23.918;2023-05-08T07:42:00;93268.88;;;21.76;41.10
40592;BME280;26301;42.832;23.918;2023-05-08T07:44:26;93288.09;;;21.85;41.89
40592;BME280;26301;42.832;23.918;2023-05-08T07:46:52;93274.31;;;21.80;43.38
40592;BME280;26301;42.832;23.918;2023-05-08T07:49:18;93295.22;;;21.62;41.04
40592;BME280;26301;42.832;23.918;2023-05-08T07:51:44;93292.00;;;21.43;41.18
40592;BME280;26301;42.832;23.918;2023-05-08T07:54:11;93275.06;;;21.35;41.01
40592;BME280;26301;42.832;23.918;2023-05-08T07:56:36;93282.88;;;21.40;41.07
40592;BME280;26301;42.832;23.918;2023-05-08T07:59:02;93292.69;;;21.35;41.84
40592;BME280;26301;42.832;23.918;2023-05-08T08:01:28;93238.66;;;20.97;42.74
40592;BME280;26301;42.832;23.918;2023-05-08T08:03:54;93293.28;;;21.09;41.94
40592;BME280;26301;42.832;23.918;2023-05-08T08:06:19;93299.72;;;21.03;42.56
40592;BME280;26301;42.832;23.918;2023-05-08T08:08:45;93271.00;;;20.70;42.16
40592;BME280;26301;42.832;23.918;2023-05-08T08:11:11;93297.25;;;21.07;43.58
40592;BME280;26301;42.832;23.918;2023-05-08T08:13:36;93276.13;;;20.75;42.95
40592;BME280;26301;42.832;23.918;2023-05-08T08:16:02;93277.94;;;20.89;43.89
40592;BME280;26301;42.832;23.918;2023-05-08T08:18:33;93292.50;;;21.31;44.01
40592;BME280;26301;42.832;23.918;2023-05-08T08:21:00;93291.66;;;21.58;41.57
40592;BME280;26301;42.832;23.918;2023-05-08T08:23:25;93292.34;;;21.50;41.71
40592;BME280;26301;42.832;23.918;2023-05-08T08:25:51;93240.75;;;21.32;41.54
40592;BME280;26301;42.832;23.918;2023-05-08T08:28:18;93290.00;;;21.94;38.99
40592;BME280;26301;42.832;23.918;2023-05-08T08:30:43;93284.88;;;21.88;40.72
40592;BME280;26301;42.832;23.918;2023-05-08T08:33:09;93292.03;;;21.97;40.42
40592;BME280;26301;42.832;23.918;2023-05-08T08:35:35;93293.19;;;21.82;40.43
40592;BME280;26301;42.832;23.918;2023-05-08T08:38:01;93272.38;;;21.40;41.75
40592;BME280;26301;42.832;23.918;2023-05-08T08:40:26;93300.81;;;21.24;41.38
40592;BME280;26301;42.832;23.918;2023-05-08T08:42:53;93270.00;;;21.16;41.50
40592;BME280;26301;42.832;23.918;2023-05-08T08:45:19;93292.84;;;21.16;41.78
40592;BME280;26301;42.832;23.918;2023-05-08T08:47:45;93295.41;;;21.07;41.92
40592;BME280;26301;42.832;23.918;2023-05-08T08:50:13;93289.22;;;21.03;42.19
40592;BME280;26301;42.832;23.918;2023-05-08T08:55:17;93274.84;;;20.87;42.08
40592;BME280;26301;42.832;23.918;2023-05-08T09:00:27;93291.63;;;20.99;44.23
40592;BME280;26301;42.832;23.918;2023-05-08T09:02:55;93283.56;;;20.96;44.31
40592;BME280;26301;42.832;23.918;2023-05-08T09:05:21;93290.66;;;21.09;44.44
40592;BME280;26301;42.832;23.918;2023-05-08T09:07:49;93277.44;;;21.00;43.16
40592;BME280;26301;42.832;23.918;2023-05-08T09:10:15;93283.75;;;21.36;43.05
40592;BME280;26301;42.832;23.918;2023-05-08T09:12:41;93257.19;;;21.37;43.00
40592;BME280;26301;42.832;23.918;2023-05-08T09:15:07;93283.66;;;21.63;42.11
40592;BME280;26301;42.832;23.918;2023-05-08T09:17:32;93279.66;;;21.30;41.63
40592;BME280;26301;42.832;23.918;2023-05-08T09:19:58;93268.88;;;21.31;42.45
40592;BME280;26301;42.832;23.918;2023-05-08T09:22:25;93254.19;;;21.30;42.55
40592;BME280;26301;42.832;23.918;2023-05-08T09:24:58;93254.78;;;21.27;42.44
40592;BME280;26301;42.832;23.918;2023-05-08T09:27:27;93261.31;;;21.52;44.58
40592;BME280;26301;42.832;23.918;2023-05-08T09:30:10;93274.38;;;21.66;42.72
40592;BME280;26301;42.832;23.918;2023-05-08T09:32:37;93270.69;;;21.44;43.32
40592;BME280;26301;42.832;23.918;2023-05-08T09:35:04;93271.19;;;21.33;44.65
40592;BME280;26301;42.832;23.918;2023-05-08T09:37:30;93267.03;;;20.95;44.40
40592;BME280;26301;42.832;23.918;2023-05-08T09:40:32;93282.44;;;20.88;45.18
40592;BME280;26301;42.832;23.918;2023-05-08T09:43:11;93286.75;;;20.70;45.72
40592;BME280;26301;42.832;23.918;2023-05-08T09:45:37;93267.69;;;20.65;46.87
40592;BME280;26301;42.832;23.918;2023-05-08T09:48:05;93276.25;;;20.70;47.82
40592;BME280;26301;42.832;23.918;2023-05-08T09:50:31;93271.69;;;20.62;46.24
40592;BME280;26301;42.832;23.918;2023-05-08T09:52:57;93279.81;;;20.47;45.46
40592;BME280;26301;42.832;23.918;2023-05-08T09:55:23;93283.03;;;20.58;48.80
40592;BME280;26301;42.832;23.918;2023-05-08T09:57:58;93309.75;;;20.46;49.82
40592;BME280;26301;42.832;23.918;2023-05-08T10:00:28;93304.84;;;19.84;52.16
40592;BME280;26301;42.832;23.918;2023-05-08T10:03:00;93298.69;;;19.23;53.71
40592;BME280;26301;42.832;23.918;2023-05-08T10:05:31;93308.88;;;19.06;54.34
40592;BME280;26301;42.832;23.918;2023-05-08T10:07:58;93326.13;;;19.07;57.17
40592;BME280;26301;42.832;23.918;2023-05-08T10:10:25;93313.03;;;18.88;57.31
40592;BME280;26301;42.832;23.918;2023-05-08T10:12:53;93285.28;;;18.44;59.79
40592;BME280;26301;42.832;23.918;2023-05-08T10:15:24;93337.56;;;18.73;61.00
40592;BME280;26301;42.832;23.918;2023-05-08T10:18:05;93328.94;;;18.91;61.23
40592;BME280;26301;42.832;23.918;2023-05-08T10:20:33;93343.53;;;18.98;63.09
40592;BME280;26301;42.832;23.918;2023-05-08T10:22:58;93337.31;;;19.31;61.30
40592;BME280;26301;42.832;23.918;2023-05-08T10:25:30;93339.84;;;19.55;60.59
40592;BME280;26301;42.832;23.918;2023-05-08T10:28:09;93333.69;;;19.46;62.75
40592;BME280;26301;42.832;23.918;2023-05-08T10:30:46;93329.91;;;19.19;63.25
40592;BME280;26301;42.832;23.918;2023-05-08T10:33:14;93317.44;;;19.30;64.07
40592;BME280;26301;42.832;23.918;2023-05-08T10:35:40;93338.50;;;19.77;62.61
40592;BME280;26301;42.832;23.918;2023-05-08T10:38:10;93341.47;;;20.03;64.85
40592;BME280;26301;42.832;23.918;2023-05-08T10:40:38;93337.25;;;20.35;60.10
40592;BME280;26301;42.832;23.918;2023-05-08T10:43:05;93340.91;;;20.33;63.75
40592;BME280;26301;42.832;23.918;2023-05-08T10:45:32;93332.59;;;20.31;64.45
40592;BME280;26301;42.832;23.918;2023-05-08T10:53:28;93348.94;;;20.09;63.44
40592;BME280;26301;42.832;23.918;2023-05-08T10:55:55;93332.84;;;19.70;64.23
40592;BME280;26301;42.832;23.918;2023-05-08T10:58:32;93351.69;;;19.85;65.60
40592;BME280;26301;42.832;23.918;2023-05-08T11:03:25;93346.63;;;19.75;65.54
40592;BME280;26301;42.832;23.918;2023-05-08T11:05:52;93347.59;;;19.66;66.33
40592;BME280;26301;42.832;23.918;2023-05-08T11:08:20;93359.97;;;19.41;64.72
40592;BME280;26301;42.832;23.918;2023-05-08T11:11:08;93354.66;;;19.08;65.93
40592;BME280;26301;42.832;23.918;2023-05-08T11:13:49;93355.06;;;19.15;65.77
40592;BME280;26301;42.832;23.918;2023-05-08T11:16:16;93363.44;;;19.17;64.12
40592;BME280;26301;42.832;23.918;2023-05-08T11:19:16;93366.47;;;19.06;63.98
40592;BME280;26301;42.832;23.918;2023-05-08T11:22:22;93358.59;;;18.87;65.31
40592;BME280;26301;42.832;23.918;2023-05-08T11:25:15;93363.09;;;18.81;64.74
40592;BME280;26301;42.832;23.918;2023-05-08T11:35:44;93355.56;;;18.99;63.36
40592;BME280;26301;42.832;23.918;2023-05-08T11:38:34;93337.38;;;18.88;63.03
40592;BME280;26301;42.832;23.918;2023-05-08T11:41:20;93332.84;;;18.70;64.25
40592;BME280;26301;42.832;23.918;2023-05-08T11:49:22;93340.19;;;18.68;64.16
40592;BME280;26301;42.832;23.918;2023-05-08T11:51:49;93332.84;;;18.75;64.52
40592;BME280;26301;42.832;23.918;2023-05-08T11:54:19;93346.72;;;18.94;68.76
40592;BME280;26301;42.832;23.918;2023-05-08T11:56:47;93343.88;;;18.91;71.74
40592;BME280;26301;42.832;23.918;2023-05-08T11:59:16;93348.56;;;18.94;72.43
40592;BME280;26301;42.832;23.918;2023-05-08T12:01:42;93341.22;;;18.96;74.17
40592;BME280;26301;42.832;23.918;2023-05-08T12:04:10;93333.56;;;18.81;75.57
40592;BME280;26301;42.832;23.918;2023-05-08T12:06:38;93314.16;;;18.82;74.88
40592;BME280;26301;42.832;23.918;2023-05-08T12:09:15;93329.47;;;18.93;74.48
40592;BME280;26301;42.832;23.918;2023-05-08T12:11:41;93315.38;;;18.89;78.39
40592;BME280;26301;42.832;23.918;2023-05-08T12:14:08;93331.66;;;19.05;75.45
40592;BME280;26301;42.832;23.918;2023-05-08T12:16:38;93326.53;;;18.76;68.26
40592;BME280;26301;42.832;23.918;2023-05-08T12:19:08;93329.13;;;18.28;70.52
40592;BME280;26301;42.832;23.918;2023-05-08T12:21:34;93337.56;;;18.20;68.59
40592;BME280;26301;42.832;23.918;2023-05-08T12:24:04;93327.56;;;18.03;68.56
40592;BME280;26301;42.832;23.918;2023-05-08T12:26:51;93330.50;;;17.96;67.83
40592;BME280;26301;42.832;23.918;2023-05-08T12:29:19;93324.94;;;17.69;68.53
40592;BME280;26301;42.832;23.918;2023-05-08T12:31:46;93335.56;;;17.48;71.76
40592;BME280;26301;42.832;23.918;2023-05-08T12:34:12;93312.69;;;17.35;69.83
40592;BME280;26301;42.832;23.918;2023-05-08T12:36:38;93353.25;;;17.56;71.03
40592;BME280;26301;42.832;23.918;2023-05-08T12:39:14;93349.00;;;17.31;71.51
40592;BME280;26301;42.832;23.918;2023-05-08T12:41:45;93351.28;;;17.38;70.06
40592;BME280;26301;42.832;23.918;2023-05-08T12:46:51;93361.06;;;17.22;70.11
40592;BME280;26301;42.832;23.918;2023-05-08T12:51:45;93335.63;;;16.94;71.29
40592;BME280;26301;42.832;23.918;2023-05-08T12:54:10;93368.47;;;17.05;72.23
40592;BME280;26301;42.832;23.918;2023-05-08T12:56:42;93353.47;;;16.76;75.91
40592;BME280;26301;42.832;23.918;2023-05-08T12:59:09;93336.63;;;16.38;74.74
40592;BME280;26301;42.832;23.918;2023-05-08T13:01:35;93386.09;;;16.58;75.25
40592;BME280;26301;42.832;23.918;2023-05-08T13:04:00;93394.78;;;16.23;74.29
40592;BME280;26301;42.832;23.918;2023-05-08T13:06:26;93374.22;;;15.91;76.01
40592;BME280;26301;42.832;23.918;2023-05-08T13:08:53;93392.44;;;16.06;76.86
40592;BME280;26301;42.832;23.918;2023-05-08T13:11:32;93374.22;;;15.91;75.71
40592;BME280;26301;42.832;23.918;2023-05-08T13:13:58;93389.34;;;15.94;82.17
40592;BME280;26301;42.832;23.918;2023-05-08T13:16:24;93396.13;;;15.90;80.96
40592;BME280;26301;42.832;23.918;2023-05-08T13:18:50;93378.66;;;15.75;79.62
40592;BME280;26301;42.832;23.918;2023-05-08T13:21:15;93407.84;;;15.92;79.29
40592;BME280;26301;42.832;23.918;2023-05-08T13:23:41;93385.69;;;15.85;82.14
40592;BME280;26301;42.832;23.918;2023-05-08T13:26:07;93386.75;;;15.84;83.40
40592;BME280;26301;42.832;23.918;2023-05-08T13:28:33;93411.47;;;15.91;85.72
40592;BME280;26301;42.832;23.918;2023-05-08T13:30:59;93412.81;;;15.89;83.31
40592;BME280;26301;42.832;23.918;2023-05-08T13:33:24;93400.56;;;15.89;82.71
40592;BME280;26301;42.832;23.918;2023-05-08T13:35:50;93389.63;;;15.92;82.27
40592;BME280;26301;42.832;23.918;2023-05-08T13:38:16;93390.66;;;15.81;81.45
40592;BME280;26301;42.832;23.918;2023-05-08T13:40:41;93392.72;;;15.84;81.58
40592;BME280;26301;42.832;23.918;2023-05-08T13:43:07;93395.88;;;15.86;80.84
40592;BME280;26301;42.832;23.918;2023-05-08T13:45:33;93398.72;;;15.74;83.42
40592;BME280;26301;42.832;23.918;2023-05-08T13:47:58;93397.41;;;15.72;82.09
40592;BME280;26301;42.832;23.918;2023-05-08T13:50:24;93409.66;;;15.71;83.89
40592;BME280;26301;42.832;23.918;2023-05-08T13:52:49;93398.94;;;15.58;81.87
40592;BME280;26301;42.832;23.918;2023-05-08T13:55:15;93409.63;;;15.56;83.24